Impacts TAF Board
For situational awareness. Not to be used for flight planning purposes.
IDs:

KTPA - Tampa Intl Arpt, FL, US

Issued at 2059 UTC 30 Jun 2022
Updated at 2154 UTC 30 Jun 2022
Potential Impact None Slight Moderate High
Time2053Z 30/22Z 30/23Z 01/00Z 01/01Z 01/02Z 01/03Z 01/04Z 01/05Z 01/06Z 01/07Z 01/08Z 01/09Z 01/10Z>>
Type OBS PRVL PRVL PRVL PRVL PRVL PRVL PRVL PRVL PRVL PRVL PRVL PRVL PRVL
VIS 10 >6 >6 >6 >6 >6 >6 >6 >6 >6 >6 >6 >6 >6
CIG 100 -- -- -- -- 150 150 150 150 150 150 150 150 150
Cover BKN SCT SCT SCT SCT BKN BKN BKN BKN BKN BKN BKN BKN BKN
FltCat VFR VFR VFR VFR VFR VFR VFR VFR VFR VFR VFR VFR VFR VFR
WX TS VCTS VCTS VCTS VCTS -- -- -- -- -- -- -- -- --
WDir 290 280 280 280 280 VRB VRB VRB VRB VRB VRB VRB VRB VRB
WSpd 10 12 12 12 12 4 4 4 4 4 4 4 4 4
WGst 20 -- -- -- -- -- -- -- -- -- -- -- -- --
WSHgt -- -- -- -- -- -- -- -- -- -- -- -- -- --
WSDir -- -- -- -- -- -- -- -- -- -- -- -- -- --
WSSpd -- -- -- -- -- -- -- -- -- -- -- -- -- --
Raw TAF
KTPA 302059Z 3021/0124 28012KT P6SM VCTS FEW030CB SCT250
  FM010200 VRB04KT P6SM SCT030 BKN150
  FM011500 20005KT P6SM SCT030 BKN150
  FM011900 26007KT P6SM VCTS SCT030CB SCT080
  FM012300 02010KT P6SM BKN100


Raw METAR
KTPA 302053Z 29010G20KT 10SM TS FEW015 SCT040CB BKN100 BKN250 33/24 A3007 RMK AO2 LTG DSNT NE-SE TSB20 SLP181 OCNL LTGCG NE-SE TS NE-SE MOV W VCSH NE-SE T03330244 55012
KTPA 302020Z COR 32010KT 10SM TS FEW020 SCT040CB BKN250 33/24 A3006 RMK AO2 LTG DSNT ALQDS TSB20 FRQ LTGCG E TS E LTL MOV VCSH E CB DSNT NE-SE AND NW T03280244
KTPA 301953Z 29010KT 10SM FEW020 SCT040TCU BKN250 32/23 A3007 RMK AO2 LTG DSNT SE AND S AND NW SLP181 CB DSNT NW-SE TCU N-NE SHRA DSNT NW T03170228
KTPA 301940Z 28010G19KT 10SM SCT040TCU 32/22 A3007 RMK AO2 LTG DSNT N AND SE AND NW CB DSNT NW-SE TCU N-NE T03220222
KTPA 301853Z 27014KT 10SM VCTS SCT040TCU 33/23 A3008 RMK AO2 TSE1757 SLP185 CB DSNT W-NW TCU NW-SE T03280233
KTPA 301846Z 27014KT 10SM SCT040TCU 33/24 A3008 RMK AO2 TSE1757 CB DSNT W-NW TCU NW-SE T03280239

METAR Board
Radar Display
Forecast Discussion
For situational awareness. Not to be used for flight planning purposes.